createdAt,value
2019-04-07T00:00:55.660Z,7.10
2019-04-07T00:03:21.833Z,7.37
2019-04-07T00:05:48.266Z,8.50
2019-04-07T00:08:15.104Z,10.97
2019-04-07T00:10:41.417Z,14.93
2019-04-07T00:13:07.758Z,7.27
2019-04-07T00:15:34.463Z,7.97
2019-04-07T00:18:00.797Z,10.53
2019-04-07T00:20:27.114Z,8.43
2019-04-07T00:22:53.400Z,8.43
2019-04-07T00:25:19.555Z,8.10
2019-04-07T00:27:45.756Z,13.10
2019-04-07T00:30:13.925Z,8.30
2019-04-07T00:32:40.116Z,11.07
2019-04-07T00:35:06.744Z,11.50
2019-04-07T00:37:32.923Z,11.30
2019-04-07T00:39:59.098Z,10.13
2019-04-07T00:42:25.939Z,9.33
2019-04-07T00:44:52.301Z,12.13
2019-04-07T00:47:18.619Z,10.53
2019-04-07T00:49:45.085Z,10.37
2019-04-07T00:52:13.189Z,9.20
2019-04-07T00:54:39.448Z,8.77
2019-04-07T00:57:05.779Z,8.27
2019-04-07T00:59:32.073Z,11.57
2019-04-07T01:01:58.349Z,10.90
2019-04-07T01:04:24.666Z,9.30
2019-04-07T01:06:51.635Z,9.23
2019-04-07T01:09:17.803Z,9.27
2019-04-07T01:11:44.257Z,10.77
2019-04-07T01:14:10.919Z,10.60
2019-04-07T01:16:37.468Z,9.63
2019-04-07T01:19:03.806Z,12.20
2019-04-07T01:21:30.333Z,7.87
2019-04-07T01:23:56.935Z,12.97
2019-04-07T01:26:23.882Z,10.07
2019-04-07T01:28:50.751Z,11.00
2019-04-07T01:31:17.662Z,8.57
2019-04-07T01:33:44.343Z,9.43
2019-04-07T01:36:11.240Z,11.47
2019-04-07T01:38:37.904Z,10.20
2019-04-07T01:41:06.307Z,10.63
2019-04-07T01:43:40.482Z,10.27
2019-04-07T01:46:11.442Z,8.43
2019-04-07T01:48:39.609Z,10.07
2019-04-07T01:51:24.630Z,11.93
2019-04-07T01:53:56.362Z,9.93
2019-04-07T01:56:33.746Z,11.53
2019-04-07T01:59:10.293Z,12.23
2019-04-07T02:01:49.547Z,13.67
2019-04-07T02:07:24.728Z,9.93
2019-04-07T02:10:05.271Z,12.60
2019-04-07T02:12:50.702Z,12.17
2019-04-07T02:15:25.191Z,11.30
2019-04-07T02:18:02.471Z,13.23
2019-04-07T02:20:43.391Z,14.43
2019-04-07T02:23:28.201Z,14.87
2019-04-07T02:26:13.571Z,15.73
2019-04-07T02:28:57.211Z,16.17
2019-04-07T02:31:25.528Z,20.07
2019-04-07T02:34:10.195Z,15.27
2019-04-07T02:36:50.034Z,16.87
2019-04-07T02:39:18.321Z,13.07
2019-04-07T02:41:58.782Z,17.53
2019-04-07T02:44:27.330Z,16.60
2019-04-07T02:46:58.838Z,18.73
2019-04-07T02:49:35.971Z,17.80
2019-04-07T02:52:11.100Z,29.37
2019-04-07T02:54:48.008Z,28.03
2019-04-07T02:57:16.058Z,23.67
2019-04-07T02:59:46.713Z,21.47
2019-04-07T03:02:20.882Z,21.90
2019-04-07T03:04:49.818Z,20.37
2019-04-07T03:07:21.685Z,15.37
2019-04-07T03:09:50.426Z,20.87
2019-04-07T03:12:19.077Z,23.30
2019-04-07T03:14:54.309Z,19.53
2019-04-07T03:17:25.764Z,18.03
2019-04-07T03:20:00.685Z,16.97
2019-04-07T03:22:32.366Z,22.03
2019-04-07T03:25:18.930Z,19.00
2019-04-07T03:27:52.813Z,19.60
2019-04-07T03:30:24.232Z,22.73
2019-04-07T03:33:12.887Z,17.83
2019-04-07T03:35:47.803Z,18.30
2019-04-07T03:38:15.222Z,20.07
2019-04-07T03:40:55.599Z,19.90
2019-04-07T03:43:26.206Z,19.40
2019-04-07T03:45:55.035Z,20.53
2019-04-07T03:48:26.391Z,22.37
2019-04-07T03:54:07.154Z,21.90
2019-04-07T03:56:52.095Z,22.07
2019-04-07T03:59:21.579Z,24.17
2019-04-07T04:01:59.146Z,27.50
2019-04-07T04:04:27.570Z,24.50
